CST,Max TemperatureF,Mean TemperatureF,Min TemperatureF,Max Dew PointF,MeanDew PointF,Min DewpointF,Max Humidity, Mean Humidity, Min Humidity, Max Sea Level PressureIn, Mean Sea Level PressureIn, Min Sea Level PressureIn, Max VisibilityMiles, Mean VisibilityMiles, Min VisibilityMiles, Max Wind SpeedMPH, Mean Wind SpeedMPH, Max Gust SpeedMPH,PrecipitationIn, CloudCover, Events, WindDirDegrees
2012-11-1,46,39,30,33,27,22,73,57,46,30.06,29.99,29.92,10,10,6,15,7,21,0.00,3,,342
2012-11-2,39,34,28,26,24,22,81,67,55,30.18,30.14,30.08,10,10,10,7,5,,0.00,3,,28
2012-11-3,44,40,37,32,27,25,76,60,51,30.24,30.21,30.17,10,10,10,6,1,,0.00,8,Rain,82
2012-11-4,44,40,36,35,33,31,93,77,68,30.23,30.19,30.13,10,9,5,9,3,,0.00,8,,83
2012-11-5,44,42,39,38,36,33,93,79,70,30.20,30.12,29.92,9,6,2,17,7,23,0.00,8,Rain,115
2012-11-6,44,42,39,38,36,32,93,81,68,29.99,29.85,29.76,10,8,3,16,11,22,0.16,8,Rain,285
2012-11-7,46,42,37,35,33,31,82,74,58,30.12,30.08,29.97,10,10,10,10,5,,0.00,6,,246
2012-11-8,54,45,36,37,34,30,82,68,50,30.06,29.98,29.92,10,10,10,18,8,24,0.00,0,,159
2012-11-9,54,45,36,39,36,33,89,72,57,30.05,29.98,29.92,10,9,5,13,9,22,0.00,2,,61
2012-11-10,72,58,44,56,48,39,94,80,53,29.88,29.62,29.45,10,5,1,20,12,30,0.26,7,Rain-Thunderstorm,120
2012-11-11,55,38,21,52,29,13,93,81,63,29.97,29.74,29.50,10,9,2,20,13,29,0.03,8,Rain-Snow,270
2012-11-12,26,22,19,18,14,10,86,70,59,30.33,30.07,29.93,10,9,2,20,12,26,0.00,6,Snow,266
2012-11-13,43,30,17,27,20,13,85,67,42,30.39,30.34,30.29,10,10,10,13,5,,0.00,2,,184
2012-11-14,52,42,33,32,30,27,82,63,43,30.28,30.23,30.16,10,10,10,8,5,,0.00,3,,161
2012-11-15,52,41,28,33,25,11,73,54,40,30.48,30.27,30.12,10,10,10,14,7,,0.00,2,,295
2012-11-16,45,33,21,28,17,11,73,53,29,30.51,30.44,30.33,10,10,10,13,5,,0.00,0,,131
2012-11-17,57,46,36,37,34,29,76,60,44,30.32,30.25,30.20,10,10,8,15,11,22,0.00,3,,165
2012-11-18,59,52,45,34,32,30,56,49,36,30.19,30.12,30.06,10,10,10,17,12,23,0.00,2,,161
2012-11-19,60,52,43,38,36,33,76,57,42,30.08,30.04,30.01,10,10,9,10,6,,0.00,3,,179
2012-11-20,53,44,34,36,33,31,92,71,47,30.19,30.13,30.05,10,8,3,10,5,,0.00,0,,262
2012-11-21,61,52,44,43,37,31,68,54,42,30.03,29.88,29.68,10,10,10,16,10,24,0.00,0,,188
2012-11-22,57,40,24,43,32,18,89,75,53,30.01,29.80,29.61,10,6,0,23,16,37,0.01,5,Fog-Rain-Snow,270
2012-11-23,26,22,15,18,14,9,86,72,58,30.40,30.21,29.99,10,7,1,25,18,38,0.00,7,Snow,310
2012-11-24,28,19,10,18,13,7,88,71,56,30.39,30.12,29.83,10,10,10,13,6,,0.00,4,,167
2012-11-25,30,28,23,23,20,9,75,68,53,30.19,29.98,29.79,10,10,10,21,8,25,0.00,7,,300
2012-11-26,21,16,10,7,6,3,77,64,48,30.46,30.38,30.21,10,10,10,12,9,26,0.00,0,,292
2012-11-27,39,26,14,24,16,7,81,68,53,30.37,30.23,30.10,10,10,10,16,7,,0.00,2,,234
2012-11-28,36,31,26,23,21,19,81,69,57,30.36,30.26,30.10,10,10,10,12,7,,0.00,4,,229
2012-11-29,39,32,25,26,24,20,85,69,53,30.12,30.09,30.06,10,9,7,10,5,,0.00,0,,55
2012-11-30,36,34,32,31,28,25,89,79,72,30.18,30.12,30.08,8,6,3,13,8,,0.00,8,,85